createdAt,value
2022-11-23T00:00:32.021Z,2.70
2022-11-23T00:02:59.817Z,3.53
2022-11-23T00:05:28.176Z,2.90
2022-11-23T00:07:54.920Z,2.90
2022-11-23T00:10:22.256Z,2.70
2022-11-23T00:12:48.867Z,2.83
2022-11-23T00:15:16.026Z,2.73
2022-11-23T00:17:42.582Z,2.87
2022-11-23T00:20:09.505Z,2.13
2022-11-23T00:22:36.037Z,2.60
2022-11-23T00:25:02.765Z,2.73
2022-11-23T00:27:29.458Z,2.40
2022-11-23T00:29:55.973Z,2.73
2022-11-23T00:32:22.734Z,2.70
2022-11-23T00:34:49.340Z,2.43
2022-11-23T00:37:17.044Z,2.80
2022-11-23T00:42:15.078Z,2.47
2022-11-23T00:44:41.664Z,2.40
2022-11-23T00:47:08.238Z,2.63
2022-11-23T00:49:34.806Z,2.90
2022-11-23T00:52:01.446Z,2.20
2022-11-23T00:54:27.974Z,2.63
2022-11-23T00:56:54.505Z,2.93
2022-11-23T00:59:21.138Z,2.77
2022-11-23T01:01:49.397Z,3.10
2022-11-23T01:04:16.243Z,3.00
2022-11-23T01:06:42.771Z,2.40
2022-11-23T01:09:24.857Z,2.83
2022-11-23T01:11:51.410Z,2.50
2022-11-23T01:14:17.979Z,2.70
2022-11-23T01:16:44.839Z,2.53
2022-11-23T01:19:14.405Z,3.10
2022-11-23T01:21:40.945Z,2.67
2022-11-23T01:24:20.343Z,2.50
2022-11-23T01:26:55.102Z,2.73
2022-11-23T01:31:54.616Z,2.40
2022-11-23T01:34:21.245Z,3.13
2022-11-23T01:36:47.845Z,3.20
2022-11-23T01:39:14.778Z,3.23
2022-11-23T01:41:43.560Z,2.60
2022-11-23T01:44:26.571Z,2.47
2022-11-23T01:46:53.844Z,2.27
2022-11-23T01:49:21.279Z,3.00
2022-11-23T01:51:51.233Z,3.20
2022-11-23T01:54:22.841Z,2.80
2022-11-23T01:57:12.270Z,3.20
2022-11-23T01:59:38.928Z,3.07
2022-11-23T02:04:43.236Z,2.67
2022-11-23T02:07:10.546Z,2.80
2022-11-23T02:12:13.610Z,2.60
2022-11-23T02:14:41.826Z,2.70
2022-11-23T02:17:09.062Z,2.57
2022-11-23T02:22:14.222Z,2.83
2022-11-23T02:24:48.999Z,3.10
2022-11-23T02:29:49.909Z,2.77
2022-11-23T02:32:23.401Z,2.70
2022-11-23T02:34:50.773Z,3.03
2022-11-23T02:37:18.589Z,2.93
2022-11-23T02:39:49.045Z,2.73
2022-11-23T02:50:08.873Z,2.43
2022-11-23T02:57:38.680Z,2.30
2022-11-23T03:05:09.267Z,2.30
2022-11-23T03:10:08.152Z,2.47
2022-11-23T03:17:38.199Z,2.67
2022-11-23T03:25:08.437Z,2.80
2022-11-23T03:30:08.553Z,2.60
2022-11-23T03:35:07.956Z,2.27
2022-11-23T03:42:40.244Z,2.37
2022-11-23T03:45:08.010Z,2.13
2022-11-23T03:52:38.404Z,2.53
2022-11-23T04:00:09.208Z,2.10
2022-11-23T04:05:07.997Z,2.40
2022-11-23T04:12:37.977Z,2.70
2022-11-23T04:20:08.552Z,2.40
2022-11-23T04:27:38.863Z,2.07
2022-11-23T04:35:09.129Z,2.23
2022-11-23T04:42:39.257Z,2.10
2022-11-23T04:47:38.115Z,1.90
2022-11-23T04:55:08.323Z,2.00
2022-11-23T05:02:38.497Z,2.47
2022-11-23T05:10:09.012Z,2.20
2022-11-23T05:15:08.345Z,2.20
2022-11-23T05:22:39.232Z,2.07
2022-11-23T05:27:38.061Z,2.20
2022-11-23T05:30:05.137Z,2.43
2022-11-23T05:32:31.690Z,1.80
2022-11-23T05:34:58.229Z,1.93
2022-11-23T05:37:24.750Z,2.37
2022-11-23T05:39:51.276Z,1.93
2022-11-23T05:42:17.855Z,1.83
2022-11-23T05:44:44.439Z,1.90
2022-11-23T05:49:42.518Z,1.83
2022-11-23T05:52:09.163Z,1.83
2022-11-23T05:54:35.733Z,2.10
2022-11-23T05:57:02.270Z,1.67
2022-11-23T05:59:28.818Z,2.27
2022-11-23T06:01:55.426Z,1.93
2022-11-23T06:04:22.065Z,1.80
2022-11-23T06:06:48.716Z,2.10
2022-11-23T06:09:15.521Z,2.50
2022-11-23T06:11:42.337Z,1.63
2022-11-23T06:14:12.862Z,1.83
2022-11-23T06:19:12.549Z,2.07
2022-11-23T06:21:39.180Z,1.97
2022-11-23T06:24:06.187Z,2.40
2022-11-23T06:26:32.761Z,1.77
2022-11-23T06:28:59.350Z,2.03
2022-11-23T06:31:25.934Z,1.77
2022-11-23T06:33:52.896Z,1.90
2022-11-23T06:36:19.609Z,2.00
2022-11-23T06:38:46.280Z,2.57
2022-11-23T06:41:12.922Z,1.87
2022-11-23T06:43:39.472Z,1.80
2022-11-23T06:46:07.524Z,1.57
2022-11-23T06:48:34.250Z,1.63
2022-11-23T06:51:01.627Z,1.87
2022-11-23T06:56:01.393Z,1.47
2022-11-23T07:08:43.893Z,1.90
2022-11-23T07:11:11.774Z,1.90
2022-11-23T07:18:41.835Z,1.70
2022-11-23T07:23:41.413Z,1.67
2022-11-23T07:31:12.444Z,1.70
2022-11-23T07:38:42.418Z,2.50
2022-11-23T07:41:09.002Z,2.00
2022-11-23T07:43:35.625Z,1.77
2022-11-23T07:46:02.251Z,1.50
2022-11-23T07:48:31.926Z,2.13
2022-11-23T07:51:02.615Z,2.23
2022-11-23T07:53:29.287Z,1.40
2022-11-23T07:55:57.871Z,1.83
2022-11-23T07:58:25.124Z,1.37
2022-11-23T08:00:51.700Z,1.73
2022-11-23T08:03:33.891Z,1.43
2022-11-23T08:06:00.622Z,1.67
2022-11-23T08:08:27.245Z,1.37
2022-11-23T08:10:54.733Z,2.20
2022-11-23T08:13:22.329Z,1.47
2022-11-23T08:18:22.695Z,1.67
2022-11-23T08:25:52.546Z,1.37
2022-11-23T08:30:51.320Z,1.33
2022-11-23T08:33:17.914Z,1.80
2022-11-23T08:35:44.469Z,1.73
2022-11-23T08:38:11.500Z,1.40
2022-11-23T08:45:41.631Z,1.37
2022-11-23T08:53:11.993Z,2.20
2022-11-23T09:00:42.390Z,1.23
2022-11-23T09:05:38.053Z,1.17
2022-11-23T09:18:11.831Z,1.30
2022-11-23T09:23:14.416Z,1.20
2022-11-23T09:36:01.865Z,1.53
2022-11-23T09:41:23.627Z,1.10
2022-11-23T09:44:04.909Z,1.50
2022-11-23T09:49:51.952Z,1.30
2022-11-23T09:52:21.614Z,1.90
2022-11-23T09:54:51.481Z,1.13
2022-11-23T11:06:25.474Z,1.20
2022-11-23T11:09:03.239Z,1.23
2022-11-23T11:11:37.266Z,1.13
2022-11-23T11:14:23.317Z,1.10
2022-11-23T11:16:55.442Z,1.57
2022-11-23T11:19:31.262Z,1.20
2022-11-23T11:21:59.476Z,1.10
2022-11-23T11:24:31.785Z,1.07
2022-11-23T11:27:01.941Z,1.13
2022-11-23T11:29:43.685Z,1.00
2022-11-23T11:32:17.297Z,1.07
2022-11-23T11:34:55.423Z,1.07
2022-11-23T11:37:36.330Z,1.13
2022-11-23T11:40:17.902Z,1.67
2022-11-23T11:42:53.405Z,1.20
2022-11-23T11:45:27.214Z,1.63
2022-11-23T11:48:12.278Z,1.40
2022-11-23T11:50:57.402Z,1.17
2022-11-23T11:53:39.464Z,1.20
2022-11-23T11:56:35.646Z,1.37
2022-11-23T11:59:44.323Z,1.50
2022-11-23T12:02:55.262Z,1.40
2022-11-23T12:05:46.150Z,1.30
2022-11-23T12:11:02.439Z,1.40
2022-11-23T12:19:07.999Z,1.10
2022-11-23T12:21:54.338Z,1.00
2022-11-23T12:24:41.105Z,0.80
2022-11-23T12:27:20.784Z,0.90
2022-11-23T12:30:03.430Z,1.53
2022-11-23T12:35:41.414Z,1.00
2022-11-23T12:38:27.141Z,1.57
2022-11-23T12:41:21.690Z,0.73
2022-11-23T12:44:42.352Z,0.90
2022-11-23T12:47:37.652Z,1.60
2022-11-23T12:52:52.881Z,1.03
2022-11-23T12:55:37.037Z,1.00
2022-11-23T12:58:30.465Z,0.97
2022-11-23T13:03:41.809Z,1.10
2022-11-23T13:07:12.389Z,0.70
2022-11-23T13:09:50.608Z,0.80
2022-11-23T13:12:35.768Z,1.00
2022-11-23T13:15:27.199Z,1.00
2022-11-23T13:20:34.065Z,1.10
2022-11-23T13:23:01.444Z,1.03
2022-11-23T13:31:16.888Z,1.23
2022-11-23T13:33:46.107Z,1.07
2022-11-23T13:36:49.329Z,1.20
2022-11-23T13:39:44.967Z,1.40
2022-11-23T13:42:12.527Z,1.10
2022-11-23T13:44:39.364Z,1.40
2022-11-23T13:50:07.369Z,0.80
2022-11-23T13:52:36.158Z,1.10
2022-11-23T13:55:11.671Z,0.90
2022-11-23T13:57:40.097Z,1.07
2022-11-23T14:09:50.643Z,1.33
2022-11-23T14:15:19.943Z,1.20
2022-11-23T14:18:01.479Z,1.70
2022-11-23T14:21:01.676Z,1.90
2022-11-23T14:29:55.790Z,1.70
2022-11-23T14:32:41.289Z,1.73
2022-11-23T14:35:17.208Z,1.97
2022-11-23T14:38:12.195Z,1.70
2022-11-23T14:40:53.321Z,1.60
2022-11-23T14:43:21.019Z,1.90
2022-11-23T14:51:23.569Z,1.80
2022-11-23T14:54:00.064Z,1.40
2022-11-23T15:01:51.581Z,1.67
2022-11-23T15:04:35.088Z,1.83
2022-11-23T15:07:18.052Z,1.40
2022-11-23T15:09:54.124Z,1.87
2022-11-23T15:17:30.129Z,1.60
2022-11-23T15:20:00.860Z,1.70
2022-11-23T15:25:10.505Z,1.93
2022-11-23T15:27:41.207Z,2.00
2022-11-23T15:30:17.310Z,1.77
2022-11-23T15:32:44.110Z,1.70
2022-11-23T15:35:14.380Z,2.17
2022-11-23T15:37:47.188Z,1.60
2022-11-23T15:42:51.355Z,1.63
2022-11-23T15:56:32.408Z,1.80
2022-11-23T15:59:05.556Z,1.93
2022-11-23T16:01:32.184Z,1.97
2022-11-23T16:04:04.597Z,1.47
2022-11-23T16:06:41.491Z,1.57
2022-11-23T16:09:52.675Z,2.53
2022-11-23T16:12:30.845Z,1.80
2022-11-23T16:15:19.227Z,1.80
2022-11-23T16:20:14.971Z,2.13
2022-11-23T16:25:32.319Z,2.03
2022-11-23T16:28:14.095Z,1.87
2022-11-23T16:30:43.037Z,2.00
2022-11-23T16:33:20.049Z,1.80
2022-11-23T16:38:19.880Z,1.57
2022-11-23T16:43:19.857Z,2.20
2022-11-23T16:45:50.426Z,1.40
2022-11-23T16:53:53.470Z,2.43
2022-11-23T16:56:26.033Z,2.10
2022-11-23T16:58:53.483Z,1.67
2022-11-23T17:01:28.233Z,1.70
2022-11-23T17:03:55.064Z,1.70
2022-11-23T17:06:25.044Z,1.53
2022-11-23T17:08:59.571Z,1.90
2022-11-23T17:11:29.929Z,1.27
2022-11-23T17:19:01.266Z,1.87
2022-11-23T17:31:51.070Z,1.80
2022-11-23T17:36:51.325Z,1.70
2022-11-23T17:39:22.598Z,2.27
2022-11-23T17:44:20.811Z,1.80
2022-11-23T17:49:21.053Z,2.30
2022-11-23T17:51:47.601Z,1.80
2022-11-23T17:54:14.122Z,1.67
2022-11-23T17:56:40.663Z,2.03
2022-11-23T17:59:07.595Z,2.30
2022-11-23T18:01:34.267Z,2.30
2022-11-23T18:04:01.290Z,2.20
2022-11-23T18:06:29.379Z,1.33
2022-11-23T18:08:56.121Z,1.67
2022-11-23T18:11:23.125Z,1.97
2022-11-23T18:13:50.616Z,1.90
2022-11-23T18:16:35.267Z,2.00
2022-11-23T18:19:01.880Z,1.87
2022-11-23T18:21:28.496Z,1.70
2022-11-23T18:23:57.064Z,1.90
2022-11-23T18:26:27.195Z,2.07
2022-11-23T18:28:54.219Z,2.07
2022-11-23T18:31:20.908Z,1.70
2022-11-23T18:33:48.156Z,2.57
2022-11-23T18:36:14.804Z,1.83
2022-11-23T18:38:44.648Z,1.90
2022-11-23T18:41:12.226Z,1.67
2022-11-23T18:43:38.863Z,3.27
2022-11-23T18:46:08.074Z,1.77
2022-11-23T18:48:34.716Z,1.70
2022-11-23T18:51:01.492Z,1.90
2022-11-23T18:53:28.183Z,1.73
2022-11-23T18:56:00.134Z,2.20
2022-11-23T18:58:32.535Z,1.83
2022-11-23T19:00:59.315Z,3.03
2022-11-23T19:03:25.922Z,2.37
2022-11-23T19:05:52.491Z,2.23
2022-11-23T19:08:19.080Z,2.10
2022-11-23T19:10:45.639Z,2.30
2022-11-23T19:13:12.177Z,2.80
2022-11-23T19:15:38.794Z,2.23
2022-11-23T19:18:05.795Z,2.30
2022-11-23T19:20:32.718Z,2.30
2022-11-23T19:22:59.259Z,2.60
2022-11-23T19:25:25.808Z,2.07
2022-11-23T19:27:52.905Z,2.00
2022-11-23T19:30:19.440Z,1.70
2022-11-23T19:32:46.032Z,2.50
2022-11-23T19:35:12.998Z,2.60
2022-11-23T19:37:39.740Z,2.20
2022-11-23T19:40:06.963Z,2.13
2022-11-23T19:42:36.642Z,1.80
2022-11-23T19:45:04.505Z,2.30
2022-11-23T19:47:34.176Z,2.10
2022-11-23T19:50:00.700Z,2.00
2022-11-23T19:52:55.481Z,2.67
2022-11-23T19:55:16.884Z,1.83
2022-11-23T19:57:43.499Z,2.10
2022-11-23T20:00:10.686Z,1.70
2022-11-23T20:02:37.625Z,1.67
2022-11-23T20:05:04.488Z,1.80
2022-11-23T20:07:31.540Z,1.73
2022-11-23T20:09:58.125Z,1.47
2022-11-23T20:12:24.637Z,2.37
2022-11-23T20:14:51.236Z,1.50
2022-11-23T20:17:17.915Z,2.27
2022-11-23T20:19:44.474Z,1.90
2022-11-23T20:22:11.072Z,1.73
2022-11-23T20:24:38.309Z,2.00
2022-11-23T20:27:04.892Z,2.00
2022-11-23T20:29:31.713Z,1.40
2022-11-23T20:31:58.530Z,1.70
2022-11-23T20:34:26.390Z,1.97
2022-11-23T20:36:53.233Z,1.70
2022-11-23T20:39:19.813Z,1.60
2022-11-23T20:41:49.178Z,2.53
2022-11-23T20:44:15.839Z,2.10
2022-11-23T20:47:01.437Z,2.07
2022-11-23T20:49:29.865Z,2.10
2022-11-23T20:51:56.887Z,1.53
2022-11-23T20:54:23.457Z,1.67
2022-11-23T20:56:50.044Z,2.00
2022-11-23T20:59:17.144Z,1.37
2022-11-23T21:01:43.754Z,1.40
2022-11-23T21:04:10.630Z,1.63
2022-11-23T21:06:39.846Z,2.10
2022-11-23T21:09:08.732Z,1.83
2022-11-23T21:11:53.926Z,1.50
2022-11-23T21:14:27.174Z,1.70
2022-11-23T21:16:56.691Z,1.33
2022-11-23T21:19:25.454Z,1.27
2022-11-23T21:21:52.933Z,1.50
2022-11-23T21:24:19.856Z,1.67
2022-11-23T21:26:47.066Z,1.40
2022-11-23T21:29:13.681Z,2.00
2022-11-23T21:31:43.346Z,1.73
2022-11-23T21:34:30.734Z,1.83
2022-11-23T21:36:58.000Z,1.50
2022-11-23T21:39:25.051Z,1.40
2022-11-23T21:41:53.300Z,1.67
2022-11-23T21:44:20.537Z,1.70
2022-11-23T21:46:47.191Z,1.60
2022-11-23T21:49:13.844Z,1.60
2022-11-23T21:51:42.415Z,1.17
2022-11-23T21:54:13.685Z,2.13
2022-11-23T21:56:41.159Z,1.60
2022-11-23T21:59:08.529Z,1.50
2022-11-23T22:01:36.646Z,1.80
2022-11-23T22:04:05.654Z,1.77
2022-11-23T22:06:32.562Z,1.70
2022-11-23T22:09:04.643Z,1.50
2022-11-23T22:11:33.250Z,1.53
2022-11-23T22:14:05.703Z,1.73
2022-11-23T22:16:34.644Z,2.00
2022-11-23T22:19:01.577Z,1.90
2022-11-23T22:21:32.696Z,1.50
2022-11-23T22:24:00.246Z,2.00
2022-11-23T22:26:30.221Z,1.27
2022-11-23T22:29:02.150Z,1.77
2022-11-23T22:31:33.766Z,2.10
2022-11-23T22:34:02.090Z,1.70
2022-11-23T22:36:29.269Z,2.17
2022-11-23T22:39:02.396Z,1.73
2022-11-23T22:41:30.861Z,1.53
2022-11-23T22:43:57.489Z,2.20
2022-11-23T22:46:25.512Z,1.77
2022-11-23T22:48:53.009Z,1.70
2022-11-23T22:51:22.101Z,1.50
2022-11-23T22:53:53.776Z,1.30
2022-11-23T22:56:21.163Z,1.60
2022-11-23T22:58:48.618Z,1.80
2022-11-23T23:01:20.540Z,2.10
2022-11-23T23:03:47.841Z,1.70
2022-11-23T23:06:17.063Z,1.67
2022-11-23T23:08:45.464Z,1.70
2022-11-23T23:11:13.392Z,1.20
2022-11-23T23:13:40.424Z,1.50
2022-11-23T23:16:10.553Z,1.23
2022-11-23T23:18:37.555Z,1.77
2022-11-23T23:21:10.820Z,1.30
2022-11-23T23:23:38.730Z,1.40
2022-11-23T23:26:06.265Z,1.70
2022-11-23T23:28:33.406Z,1.27
2022-11-23T23:31:04.796Z,1.40
2022-11-23T23:33:33.205Z,1.33
2022-11-23T23:36:10.877Z,1.50
2022-11-23T23:38:37.940Z,1.30
2022-11-23T23:41:05.964Z,1.90
2022-11-23T23:43:32.789Z,1.50
2022-11-23T23:46:01.224Z,1.70
2022-11-23T23:48:33.536Z,1.60
2022-11-23T23:51:07.659Z,1.40
2022-11-23T23:53:35.341Z,1.60
2022-11-23T23:56:07.585Z,1.80
2022-11-23T23:58:34.850Z,1.43
